createdAt,value
2022-08-14T00:01:27.056Z,99169.00
2022-08-14T00:03:05.775Z,99168.00
2022-08-14T00:04:42.469Z,99160.00
2022-08-14T00:06:25.755Z,99161.00
2022-08-14T00:08:03.153Z,99162.00
2022-08-14T00:10:02.313Z,99157.00
2022-08-14T00:11:48.646Z,99153.00
2022-08-14T00:13:29.071Z,99149.00
2022-08-14T00:15:08.969Z,99152.00
2022-08-14T00:16:48.261Z,99154.00
2022-08-14T00:18:30.978Z,99147.00
2022-08-14T00:20:31.066Z,99148.00
2022-08-14T00:22:10.919Z,99146.00
2022-08-14T00:24:03.113Z,99144.00
2022-08-14T00:25:41.819Z,99137.00
2022-08-14T00:27:17.788Z,99137.00
2022-08-14T00:28:55.321Z,99136.00
2022-08-14T00:30:28.190Z,99135.00
2022-08-14T00:32:01.573Z,99138.00
2022-08-14T00:33:55.081Z,99142.00
2022-08-14T00:36:37.098Z,99136.00
2022-08-14T00:37:30.640Z,99133.00
2022-08-14T00:39:09.625Z,99124.00
2022-08-14T00:40:46.283Z,99125.00
2022-08-14T00:42:55.600Z,99118.00
2022-08-14T00:44:31.915Z,99122.00
2022-08-14T00:46:23.451Z,99122.00
2022-08-14T00:48:09.939Z,99124.00
2022-08-14T00:49:43.697Z,99116.00
2022-08-14T00:51:23.391Z,99114.00
2022-08-14T00:53:10.667Z,99117.00
2022-08-14T00:54:44.334Z,99105.00
2022-08-14T00:56:24.618Z,99113.00
2022-08-14T00:58:32.935Z,99115.00
2022-08-14T01:00:34.018Z,99105.00
2022-08-14T01:02:21.662Z,99108.00
2022-08-14T01:04:05.713Z,99104.00
2022-08-14T01:05:52.296Z,99109.00
2022-08-14T01:07:38.710Z,99105.00
2022-08-14T01:09:25.073Z,99105.00
2022-08-14T01:11:03.195Z,99096.00
2022-08-14T01:12:43.367Z,99095.00
2022-08-14T01:14:28.591Z,99095.00
2022-08-14T01:16:10.522Z,99088.00
2022-08-14T01:18:09.289Z,99084.00
2022-08-14T01:20:02.913Z,99087.00
2022-08-14T01:21:47.100Z,99084.00
2022-08-14T01:23:22.772Z,99079.00
2022-08-14T01:24:57.293Z,99081.00
2022-08-14T01:26:38.893Z,99091.00
2022-08-14T01:28:46.331Z,99085.00
2022-08-14T01:30:08.681Z,99075.00
2022-08-14T01:31:50.401Z,99076.00
2022-08-14T01:33:30.106Z,99074.00
2022-08-14T01:35:17.750Z,99072.00
2022-08-14T01:36:59.131Z,99071.00
2022-08-14T01:38:34.407Z,99071.00
2022-08-14T01:40:12.568Z,99070.00
2022-08-14T01:41:58.561Z,99074.00
2022-08-14T01:43:41.583Z,99064.00
2022-08-14T01:45:40.071Z,99063.00
2022-08-14T01:47:21.910Z,99066.00
2022-08-14T01:48:57.332Z,99068.00
2022-08-14T01:50:35.285Z,99056.00
2022-08-14T01:52:13.493Z,99058.00
2022-08-14T01:54:14.291Z,99055.00
2022-08-14T01:55:55.812Z,99060.00
2022-08-14T01:57:49.270Z,99053.00
2022-08-14T01:59:37.974Z,99043.00
2022-08-14T02:01:12.355Z,99033.00
2022-08-14T02:02:52.640Z,99031.00
2022-08-14T02:04:55.007Z,99021.00
2022-08-14T02:06:33.359Z,99015.00
2022-08-14T02:08:11.957Z,99021.00
2022-08-14T02:09:55.853Z,99022.00
2022-08-14T02:11:29.577Z,99013.00
2022-08-14T02:13:08.119Z,99017.00
2022-08-14T02:14:59.147Z,99009.00
2022-08-14T02:16:58.957Z,99015.00
2022-08-14T02:18:33.725Z,99006.00
2022-08-14T02:20:14.712Z,99002.00
2022-08-14T02:21:56.178Z,99003.00
2022-08-14T02:23:37.045Z,99002.00
2022-08-14T02:25:12.052Z,98985.00
2022-08-14T02:28:18.761Z,98990.00
2022-08-14T02:28:57.247Z,98981.00
2022-08-14T02:30:33.678Z,98975.00
2022-08-14T02:32:10.728Z,98977.00
2022-08-14T02:34:22.427Z,98978.00
2022-08-14T02:36:58.679Z,98991.00
2022-08-14T02:37:59.788Z,98985.00
2022-08-14T02:39:37.286Z,98977.00
2022-08-14T02:41:17.483Z,98982.00
2022-08-14T02:42:57.622Z,98980.00
2022-08-14T02:44:39.705Z,98979.00
2022-08-14T02:46:20.616Z,98977.00
2022-08-14T02:48:10.393Z,98972.00
2022-08-14T02:50:04.308Z,98979.00
2022-08-14T02:51:41.220Z,98970.00
2022-08-14T02:53:18.771Z,98966.00
2022-08-14T02:54:53.193Z,98969.00
2022-08-14T02:57:15.859Z,98964.00
2022-08-14T02:58:41.807Z,98970.00
2022-08-14T03:00:25.004Z,98968.00
2022-08-14T03:02:00.613Z,98968.00
2022-08-14T03:03:41.539Z,98958.00
2022-08-14T03:05:17.395Z,98967.00
2022-08-14T03:07:06.491Z,98964.00
2022-08-14T03:08:46.060Z,98969.00
2022-08-14T03:10:26.588Z,98966.00
2022-08-14T03:12:05.877Z,98972.00
2022-08-14T03:13:43.348Z,98966.00
2022-08-14T03:15:19.600Z,98956.00
2022-08-14T03:16:57.347Z,98966.00
2022-08-14T03:18:32.868Z,98970.00
2022-08-14T03:20:14.742Z,98971.00
2022-08-14T03:21:53.709Z,98964.00
2022-08-14T03:23:27.852Z,98968.00
2022-08-14T03:25:02.231Z,98968.00
2022-08-14T03:26:41.364Z,98970.00
2022-08-14T03:28:33.359Z,98972.00
2022-08-14T03:30:14.297Z,98968.00
2022-08-14T03:31:51.185Z,98966.00
2022-08-14T03:33:28.268Z,98962.00
2022-08-14T03:35:12.881Z,98958.00
2022-08-14T03:37:37.422Z,98962.00
2022-08-14T03:39:15.296Z,98967.00
2022-08-14T03:40:51.433Z,98963.00
2022-08-14T03:42:31.021Z,98961.00
2022-08-14T03:45:27.290Z,98968.00
2022-08-14T03:46:49.204Z,98952.00
2022-08-14T03:48:30.369Z,98958.00
2022-08-14T03:50:11.112Z,98953.00
2022-08-14T03:51:47.255Z,98955.00
2022-08-14T03:53:23.160Z,98951.00
2022-08-14T03:54:58.780Z,98962.00
2022-08-14T03:56:34.027Z,98958.00
2022-08-14T03:58:09.571Z,98959.00
2022-08-14T03:59:50.372Z,98961.00
2022-08-14T04:01:39.186Z,98958.00
2022-08-14T04:03:24.118Z,98952.00
2022-08-14T04:05:08.209Z,98955.00
2022-08-14T04:06:51.302Z,98951.00
2022-08-14T04:08:30.677Z,98945.00
2022-08-14T04:10:10.169Z,98949.00
2022-08-14T04:11:43.565Z,98959.00
2022-08-14T04:13:18.132Z,98954.00
2022-08-14T04:14:52.390Z,98957.00
2022-08-14T04:16:31.525Z,98955.00
2022-08-14T04:18:08.439Z,98956.00
2022-08-14T04:19:46.630Z,98959.00
2022-08-14T04:21:24.380Z,98951.00
2022-08-14T04:22:59.212Z,98955.00
2022-08-14T04:24:38.416Z,98957.00
2022-08-14T04:26:27.462Z,98951.00
2022-08-14T04:29:05.362Z,98949.00
2022-08-14T04:30:12.476Z,98949.00
2022-08-14T04:33:00.365Z,98950.00
2022-08-14T04:33:58.119Z,98944.00
2022-08-14T04:35:56.594Z,98942.00
2022-08-14T04:37:53.581Z,98942.00
2022-08-14T04:39:57.204Z,98937.00
2022-08-14T04:42:11.833Z,98942.00
2022-08-14T04:43:50.398Z,98942.00
2022-08-14T04:45:29.695Z,98942.00
2022-08-14T04:47:25.919Z,98937.00
2022-08-14T04:49:07.858Z,98933.00
2022-08-14T04:50:49.082Z,98928.00
2022-08-14T04:52:27.547Z,98934.00
2022-08-14T04:54:02.239Z,98925.00
2022-08-14T04:55:36.607Z,98929.00
2022-08-14T04:57:13.293Z,98926.00
2022-08-14T04:58:49.158Z,98927.00
2022-08-14T05:00:22.389Z,98927.00
2022-08-14T05:01:58.450Z,98922.00
2022-08-14T05:03:39.003Z,98923.00
2022-08-14T05:05:17.149Z,98915.00
2022-08-14T05:06:56.128Z,98920.00
2022-08-14T05:08:56.700Z,98917.00
2022-08-14T05:10:32.123Z,98914.00
2022-08-14T05:13:11.847Z,98917.00
2022-08-14T05:14:33.896Z,98917.00
2022-08-14T05:16:03.752Z,98921.00
2022-08-14T05:17:58.640Z,98920.00
2022-08-14T05:19:44.925Z,98922.00
2022-08-14T05:22:00.579Z,98923.00
2022-08-14T05:23:35.444Z,98918.00
2022-08-14T05:25:11.163Z,98923.00
2022-08-14T05:26:46.698Z,98915.00
2022-08-14T05:28:25.671Z,98910.00
2022-08-14T05:30:07.792Z,98912.00
2022-08-14T05:31:41.996Z,98906.00
2022-08-14T05:33:22.138Z,98909.00
2022-08-14T05:34:59.826Z,98914.00
2022-08-14T05:36:33.724Z,98914.00
2022-08-14T05:38:22.316Z,98909.00
2022-08-14T05:40:13.503Z,98897.00
2022-08-14T05:41:53.865Z,98903.00
2022-08-14T05:43:40.939Z,98901.00
2022-08-14T05:45:17.143Z,98904.00
2022-08-14T05:46:50.501Z,98907.00
2022-08-14T05:48:33.437Z,98909.00
2022-08-14T05:50:18.678Z,98908.00
2022-08-14T05:51:52.724Z,98904.00
2022-08-14T05:53:29.032Z,98901.00
2022-08-14T05:55:12.452Z,98900.00
2022-08-14T05:56:46.314Z,98900.00
2022-08-14T05:58:20.079Z,98906.00
2022-08-14T05:59:55.959Z,98903.00
2022-08-14T06:01:28.832Z,98898.00
2022-08-14T06:03:09.292Z,98901.00
2022-08-14T06:04:53.137Z,98906.00
2022-08-14T06:06:26.892Z,98901.00
2022-08-14T06:08:01.475Z,98898.00
2022-08-14T06:09:40.678Z,98894.00
2022-08-14T06:11:20.355Z,98903.00
2022-08-14T06:13:05.053Z,98903.00
2022-08-14T06:14:39.206Z,98905.00
2022-08-14T06:16:17.744Z,98902.00
2022-08-14T06:17:59.623Z,98897.00
2022-08-14T06:19:33.604Z,98898.00
2022-08-14T06:21:15.751Z,98895.00
2022-08-14T06:22:53.825Z,98890.00
2022-08-14T06:24:27.533Z,98889.00
2022-08-14T06:26:04.908Z,98889.00
2022-08-14T06:27:39.103Z,98885.00
2022-08-14T06:29:15.971Z,98892.00
2022-08-14T06:30:52.711Z,98890.00
2022-08-14T06:32:36.904Z,98887.00
2022-08-14T06:35:02.762Z,98877.00
2022-08-14T06:36:19.950Z,98875.00
2022-08-14T06:37:59.882Z,98878.00
2022-08-14T06:39:38.080Z,98876.00
2022-08-14T06:41:13.904Z,98879.00
2022-08-14T06:43:00.256Z,98877.00
2022-08-14T06:44:38.789Z,98878.00
2022-08-14T06:46:23.093Z,98876.00
2022-08-14T06:48:17.400Z,98874.00
2022-08-14T06:49:56.492Z,98872.00
2022-08-14T06:51:44.419Z,98857.00
2022-08-14T06:53:20.976Z,98865.00
2022-08-14T06:54:56.977Z,98867.00
2022-08-14T06:56:30.500Z,98870.00
2022-08-14T06:58:05.938Z,98866.00
2022-08-14T07:00:00.284Z,98870.00
2022-08-14T07:01:51.911Z,98868.00
2022-08-14T07:03:51.050Z,98873.00
2022-08-14T07:05:55.246Z,98867.00
2022-08-14T07:07:39.300Z,98860.00
2022-08-14T07:09:16.848Z,98865.00
2022-08-14T07:11:00.791Z,98865.00
2022-08-14T07:13:02.108Z,98858.00
2022-08-14T07:14:30.222Z,98854.00
2022-08-14T07:16:05.907Z,98865.00
2022-08-14T07:17:47.236Z,98855.00
2022-08-14T07:19:29.621Z,98864.00
2022-08-14T07:21:07.222Z,98864.00
2022-08-14T07:22:49.968Z,98859.00
2022-08-14T07:24:32.320Z,98860.00
2022-08-14T07:26:10.919Z,98860.00
2022-08-14T07:27:46.796Z,98854.00
2022-08-14T07:29:26.011Z,98858.00
2022-08-14T07:31:05.019Z,98852.00
2022-08-14T07:32:38.053Z,98848.00
2022-08-14T07:34:13.018Z,98851.00
2022-08-14T07:36:26.438Z,98850.00
2022-08-14T07:38:10.359Z,98839.00
2022-08-14T07:39:51.307Z,98842.00
2022-08-14T07:41:25.512Z,98837.00
2022-08-14T07:43:14.226Z,98834.00
2022-08-14T07:44:52.872Z,98835.00
2022-08-14T07:46:30.867Z,98829.00
2022-08-14T07:48:06.612Z,98828.00
2022-08-14T07:49:59.967Z,98836.00
2022-08-14T07:51:41.853Z,98839.00
2022-08-14T07:53:15.899Z,98828.00
2022-08-14T07:54:50.747Z,98833.00
2022-08-14T07:56:47.062Z,98829.00
2022-08-14T07:58:34.153Z,98831.00
2022-08-14T08:00:31.285Z,98830.00
2022-08-14T08:02:18.464Z,98818.00
2022-08-14T08:03:59.646Z,98813.00
2022-08-14T08:05:33.875Z,98810.00
2022-08-14T08:07:13.518Z,98809.00
2022-08-14T08:09:00.906Z,98806.00
2022-08-14T08:11:01.875Z,98807.00
2022-08-14T08:12:35.763Z,98808.00
2022-08-14T08:14:17.247Z,98809.00
2022-08-14T08:15:56.575Z,98806.00
2022-08-14T08:17:34.991Z,98812.00
2022-08-14T08:19:18.753Z,98805.00
2022-08-14T08:20:55.833Z,98805.00
2022-08-14T08:22:33.903Z,98805.00
2022-08-14T08:24:08.519Z,98802.00
2022-08-14T08:25:45.707Z,98804.00
2022-08-14T08:27:21.465Z,98808.00
2022-08-14T08:28:58.206Z,98807.00
2022-08-14T08:30:49.542Z,98800.00
2022-08-14T08:32:29.678Z,98802.00
2022-08-14T08:34:07.174Z,98808.00
2022-08-14T08:35:51.745Z,98803.00
2022-08-14T08:37:25.301Z,98798.00
2022-08-14T08:39:14.968Z,98793.00
2022-08-14T08:41:00.232Z,98797.00
2022-08-14T08:42:47.637Z,98808.00
2022-08-14T08:44:34.545Z,98795.00
2022-08-14T08:46:21.125Z,98794.00
2022-08-14T08:47:56.912Z,98797.00
2022-08-14T08:49:48.528Z,98784.00
2022-08-14T08:51:38.545Z,98792.00
2022-08-14T08:53:16.628Z,98794.00
2022-08-14T08:54:56.112Z,98803.00
2022-08-14T08:56:42.958Z,98804.00
2022-08-14T08:58:25.150Z,98815.00
2022-08-14T09:00:02.101Z,98805.00
2022-08-14T09:01:36.495Z,98805.00
2022-08-14T09:03:15.668Z,98799.00
2022-08-14T09:04:53.521Z,98804.00
2022-08-14T09:07:01.451Z,98795.00
2022-08-14T09:08:32.984Z,98798.00
2022-08-14T09:10:11.841Z,98799.00
2022-08-14T09:11:51.943Z,98804.00
2022-08-14T09:13:26.511Z,98802.00
2022-08-14T09:15:08.996Z,98796.00
2022-08-14T09:16:50.330Z,98791.00
2022-08-14T09:18:27.093Z,98776.00
2022-08-14T09:20:02.302Z,98781.00
2022-08-14T09:21:43.524Z,98780.00
2022-08-14T09:23:18.131Z,98785.00
2022-08-14T09:25:01.592Z,98782.00
2022-08-14T09:26:39.764Z,98783.00
2022-08-14T09:28:14.526Z,98782.00
2022-08-14T09:29:54.262Z,98785.00
2022-08-14T09:31:42.828Z,98775.00
2022-08-14T09:33:56.392Z,98786.00
2022-08-14T09:35:56.726Z,98786.00
2022-08-14T09:37:41.865Z,98788.00
2022-08-14T09:39:40.510Z,98785.00
2022-08-14T09:42:17.403Z,98783.00
2022-08-14T09:43:46.504Z,98783.00
2022-08-14T09:45:40.075Z,98775.00
2022-08-14T09:47:46.508Z,98773.00
2022-08-14T09:49:34.120Z,98766.00
2022-08-14T09:51:25.522Z,98761.00
2022-08-14T09:53:04.340Z,98757.00
2022-08-14T09:54:43.062Z,98748.00
2022-08-14T09:56:30.514Z,98748.00
2022-08-14T09:58:22.882Z,98741.00
2022-08-14T10:00:28.969Z,98742.00
2022-08-14T10:02:18.430Z,98745.00
2022-08-14T10:03:55.953Z,98747.00
2022-08-14T10:05:39.061Z,98735.00
2022-08-14T10:07:17.837Z,98742.00
2022-08-14T10:08:55.444Z,98731.00
2022-08-14T10:10:34.282Z,98737.00
2022-08-14T10:12:13.320Z,98732.00
2022-08-14T10:14:29.005Z,98741.00
2022-08-14T10:16:25.594Z,98731.00
2022-08-14T10:18:17.230Z,98718.00
2022-08-14T10:19:53.853Z,98715.00
2022-08-14T10:21:32.037Z,98721.00
2022-08-14T10:23:23.221Z,98724.00
2022-08-14T10:24:57.516Z,98722.00
2022-08-14T10:26:33.684Z,98724.00
2022-08-14T10:28:06.424Z,98717.00
2022-08-14T10:30:03.624Z,98721.00
2022-08-14T10:31:44.519Z,98726.00
2022-08-14T10:33:34.038Z,98714.00
2022-08-14T10:35:14.077Z,98714.00
2022-08-14T10:36:49.933Z,98709.00
2022-08-14T10:38:32.990Z,98703.00
2022-08-14T10:40:36.746Z,98702.00
2022-08-14T10:42:16.293Z,98699.00
2022-08-14T10:44:21.319Z,98715.00
2022-08-14T10:46:21.442Z,98710.00
2022-08-14T10:48:09.466Z,98714.00
2022-08-14T10:50:00.329Z,98706.00
2022-08-14T10:51:36.229Z,98710.00
2022-08-14T10:53:18.463Z,98716.00
2022-08-14T10:55:09.681Z,98706.00
2022-08-14T10:56:51.837Z,98700.00
2022-08-14T10:58:35.992Z,98695.00
2022-08-14T11:00:30.036Z,98689.00
2022-08-14T11:02:44.920Z,98695.00
2022-08-14T11:04:30.320Z,98691.00
2022-08-14T11:06:19.604Z,98697.00
2022-08-14T11:08:09.154Z,98694.00
2022-08-14T11:09:57.491Z,98676.00
2022-08-14T11:11:37.164Z,98689.00
2022-08-14T11:13:12.042Z,98684.00
2022-08-14T11:14:58.833Z,98679.00
2022-08-14T11:16:36.012Z,98676.00
2022-08-14T11:18:20.753Z,98677.00
2022-08-14T11:20:14.173Z,98672.00
2022-08-14T11:21:51.680Z,98673.00
2022-08-14T11:23:38.151Z,98672.00
2022-08-14T11:25:16.407Z,98675.00
2022-08-14T11:26:56.401Z,98685.00
2022-08-14T11:28:46.941Z,98673.00
2022-08-14T11:30:51.337Z,98668.00
2022-08-14T11:32:20.059Z,98677.00
2022-08-14T11:33:57.903Z,98670.00
2022-08-14T11:35:47.453Z,98672.00
2022-08-14T11:37:31.602Z,98664.00
2022-08-14T11:39:33.746Z,98663.00
2022-08-14T11:41:12.275Z,98661.00
2022-08-14T11:42:56.667Z,98659.00
2022-08-14T11:44:45.612Z,98657.00
2022-08-14T11:46:30.585Z,98651.00
2022-08-14T11:49:03.870Z,98662.00
2022-08-14T11:50:33.811Z,98656.00
2022-08-14T11:52:15.689Z,98658.00
2022-08-14T11:54:02.663Z,98656.00
2022-08-14T11:55:39.963Z,98657.00
2022-08-14T11:57:19.895Z,98654.00
2022-08-14T11:58:59.352Z,98658.00
2022-08-14T12:00:39.564Z,98656.00
2022-08-14T12:02:38.909Z,98665.00
2022-08-14T12:04:31.838Z,98658.00
2022-08-14T12:06:29.772Z,98655.00
2022-08-14T12:08:12.074Z,98657.00
2022-08-14T12:09:52.792Z,98660.00
2022-08-14T12:11:47.496Z,98670.00
2022-08-14T12:13:32.441Z,98656.00
2022-08-14T12:15:09.535Z,98653.00
2022-08-14T12:16:45.463Z,98653.00
2022-08-14T12:18:32.657Z,98653.00
2022-08-14T12:20:12.008Z,98656.00
2022-08-14T12:21:53.748Z,98651.00
2022-08-14T12:23:31.390Z,98644.00
2022-08-14T12:25:11.411Z,98643.00
2022-08-14T12:26:57.821Z,98646.00
2022-08-14T12:28:33.998Z,98648.00
2022-08-14T12:30:39.598Z,98643.00
2022-08-14T12:32:17.722Z,98636.00
2022-08-14T12:34:00.033Z,98636.00
2022-08-14T12:35:42.614Z,98629.00
2022-08-14T12:37:17.096Z,98627.00
2022-08-14T12:38:56.514Z,98626.00
2022-08-14T12:40:32.013Z,98632.00
2022-08-14T12:42:11.933Z,98632.00
2022-08-14T12:44:08.293Z,98620.00
2022-08-14T12:45:51.171Z,98615.00
2022-08-14T12:47:31.321Z,98606.00
2022-08-14T12:49:16.129Z,98600.00
2022-08-14T12:50:53.097Z,98589.00
2022-08-14T12:52:41.704Z,98588.00
2022-08-14T12:54:32.234Z,98583.00
2022-08-14T12:56:22.211Z,98595.00
2022-08-14T12:58:06.080Z,98581.00
2022-08-14T13:00:23.154Z,98576.00
2022-08-14T13:02:07.525Z,98575.00
2022-08-14T13:03:51.826Z,98581.00
2022-08-14T13:05:30.051Z,98576.00
2022-08-14T13:07:08.384Z,98574.00
2022-08-14T13:08:53.322Z,98571.00
2022-08-14T13:10:51.183Z,98563.00
2022-08-14T13:12:32.017Z,98558.00
2022-08-14T13:14:17.262Z,98561.00
2022-08-14T13:15:56.250Z,98556.00
2022-08-14T13:17:41.743Z,98552.00
2022-08-14T13:19:18.433Z,98535.00
2022-08-14T13:20:59.656Z,98541.00
2022-08-14T13:22:38.326Z,98542.00
2022-08-14T13:24:21.674Z,98536.00
2022-08-14T13:25:58.044Z,98537.00
2022-08-14T13:27:40.527Z,98526.00
2022-08-14T13:29:19.055Z,98527.00
2022-08-14T13:30:58.602Z,98523.00
2022-08-14T13:32:36.221Z,98526.00
2022-08-14T13:34:16.913Z,98530.00
2022-08-14T13:35:57.431Z,98528.00
2022-08-14T13:37:39.868Z,98523.00
2022-08-14T13:39:20.556Z,98524.00
2022-08-14T13:40:57.327Z,98506.00
2022-08-14T13:42:31.563Z,98511.00
2022-08-14T13:44:07.947Z,98504.00
2022-08-14T13:46:00.834Z,98502.00
2022-08-14T13:47:45.245Z,98506.00
2022-08-14T13:49:21.119Z,98510.00
2022-08-14T13:51:11.036Z,98499.00
2022-08-14T13:52:54.782Z,98509.00
2022-08-14T13:54:34.928Z,98500.00
2022-08-14T13:56:15.275Z,98500.00
2022-08-14T13:58:11.544Z,98494.00
2022-08-14T14:00:10.314Z,98492.00
2022-08-14T14:01:51.714Z,98493.00
2022-08-14T14:03:32.814Z,98492.00
2022-08-14T14:05:08.335Z,98484.00
2022-08-14T14:06:51.852Z,98489.00
2022-08-14T14:08:45.733Z,98487.00
2022-08-14T14:10:28.400Z,98485.00
2022-08-14T14:12:04.046Z,98480.00
2022-08-14T14:13:41.887Z,98477.00
2022-08-14T14:15:33.833Z,98473.00
2022-08-14T14:17:24.287Z,98475.00
2022-08-14T14:19:06.912Z,98470.00
2022-08-14T14:20:46.496Z,98478.00
2022-08-14T14:22:36.081Z,98477.00
2022-08-14T14:24:18.836Z,98477.00
2022-08-14T14:25:57.481Z,98471.00
2022-08-14T14:27:40.784Z,98467.00
2022-08-14T14:29:17.915Z,98469.00
2022-08-14T14:31:05.990Z,98468.00
2022-08-14T14:32:52.743Z,98464.00
2022-08-14T14:34:39.304Z,98458.00
2022-08-14T14:36:23.284Z,98469.00
2022-08-14T14:38:04.116Z,98471.00
2022-08-14T14:40:54.447Z,98472.00
2022-08-14T14:41:43.722Z,98457.00
2022-08-14T14:43:19.703Z,98455.00
2022-08-14T14:45:09.159Z,98464.00
2022-08-14T14:46:50.188Z,98458.00
2022-08-14T14:48:31.363Z,98453.00
2022-08-14T14:50:11.009Z,98460.00
2022-08-14T14:51:51.326Z,98455.00
2022-08-14T14:53:39.276Z,98458.00
2022-08-14T14:55:16.990Z,98452.00
2022-08-14T14:56:56.479Z,98456.00
2022-08-14T14:58:32.732Z,98451.00
2022-08-14T15:00:12.571Z,98444.00
2022-08-14T15:01:51.577Z,98440.00
2022-08-14T15:03:27.152Z,98442.00
2022-08-14T15:05:04.497Z,98445.00
2022-08-14T15:06:47.643Z,98446.00
2022-08-14T15:08:26.783Z,98452.00
2022-08-14T15:10:27.613Z,98448.00
2022-08-14T15:12:34.448Z,98448.00
2022-08-14T15:14:54.837Z,98449.00
2022-08-14T15:15:59.842Z,98445.00
2022-08-14T15:17:41.210Z,98453.00
2022-08-14T15:19:15.291Z,98445.00
2022-08-14T15:20:57.039Z,98442.00
2022-08-14T15:22:39.563Z,98443.00
2022-08-14T15:24:21.007Z,98440.00
2022-08-14T15:26:07.595Z,98432.00
2022-08-14T15:27:44.370Z,98431.00
2022-08-14T15:29:19.273Z,98428.00
2022-08-14T15:30:58.879Z,98438.00
2022-08-14T15:32:33.136Z,98422.00
2022-08-14T15:34:43.267Z,98428.00
2022-08-14T15:36:16.696Z,98424.00
2022-08-14T15:38:08.682Z,98428.00
2022-08-14T15:39:42.826Z,98430.00
2022-08-14T15:41:17.925Z,98422.00
2022-08-14T15:42:51.304Z,98431.00
2022-08-14T15:44:31.249Z,98423.00
2022-08-14T15:46:09.817Z,98425.00
2022-08-14T15:48:03.267Z,98425.00
2022-08-14T15:49:38.091Z,98427.00
2022-08-14T15:51:13.627Z,98427.00
2022-08-14T15:52:50.224Z,98425.00
2022-08-14T15:54:24.331Z,98426.00
2022-08-14T15:56:06.159Z,98429.00
2022-08-14T15:58:02.255Z,98420.00
2022-08-14T15:59:58.479Z,98427.00
2022-08-14T16:01:53.346Z,98416.00
2022-08-14T16:03:36.570Z,98419.00
2022-08-14T16:05:14.676Z,98417.00
2022-08-14T16:06:54.768Z,98417.00
2022-08-14T16:08:30.673Z,98422.00
2022-08-14T16:10:28.334Z,98424.00
2022-08-14T16:11:59.407Z,98413.00
2022-08-14T16:13:41.102Z,98412.00
2022-08-14T16:15:18.119Z,98412.00
2022-08-14T16:16:56.704Z,98420.00
2022-08-14T16:18:36.444Z,98409.00
2022-08-14T16:20:12.020Z,98406.00
2022-08-14T16:21:58.351Z,98408.00
2022-08-14T16:23:41.307Z,98399.00
2022-08-14T16:25:19.380Z,98403.00
2022-08-14T16:26:54.661Z,98397.00
2022-08-14T16:28:35.383Z,98402.00
2022-08-14T16:30:25.049Z,98393.00
2022-08-14T16:32:32.873Z,98393.00
2022-08-14T16:33:59.814Z,98394.00
2022-08-14T16:35:42.370Z,98396.00
2022-08-14T16:37:31.137Z,98397.00
2022-08-14T16:39:08.302Z,98399.00
2022-08-14T16:40:45.470Z,98394.00
2022-08-14T16:42:39.087Z,98390.00
2022-08-14T16:44:31.482Z,98392.00
2022-08-14T16:46:08.940Z,98381.00
2022-08-14T16:47:44.681Z,98385.00
2022-08-14T16:49:21.743Z,98381.00
2022-08-14T16:50:57.112Z,98386.00
2022-08-14T16:52:44.216Z,98383.00
2022-08-14T16:54:34.396Z,98392.00
2022-08-14T16:56:17.253Z,98373.00
2022-08-14T16:57:59.235Z,98377.00
2022-08-14T16:59:52.598Z,98372.00
2022-08-14T17:01:29.680Z,98369.00
2022-08-14T17:03:08.403Z,98371.00
2022-08-14T17:04:45.147Z,98373.00
2022-08-14T17:06:48.238Z,98373.00
2022-08-14T17:08:32.563Z,98370.00
2022-08-14T17:10:17.205Z,98379.00
2022-08-14T17:12:09.271Z,98370.00
2022-08-14T17:14:02.654Z,98369.00
2022-08-14T17:15:36.795Z,98366.00
2022-08-14T17:17:21.108Z,98366.00
2022-08-14T17:19:03.566Z,98369.00
2022-08-14T17:21:00.579Z,98373.00
2022-08-14T17:22:49.158Z,98370.00
2022-08-14T17:24:57.342Z,98365.00
2022-08-14T17:26:37.003Z,98367.00
2022-08-14T17:28:52.691Z,98359.00
2022-08-14T17:30:31.977Z,98362.00
2022-08-14T17:32:28.201Z,98357.00
2022-08-14T17:34:05.391Z,98367.00
2022-08-14T17:35:58.246Z,98356.00
2022-08-14T17:37:38.739Z,98365.00
2022-08-14T17:39:21.189Z,98357.00
2022-08-14T17:41:17.839Z,98357.00
2022-08-14T17:43:02.422Z,98361.00
2022-08-14T17:44:45.448Z,98357.00
2022-08-14T17:46:36.189Z,98364.00
2022-08-14T17:49:14.753Z,98354.00
2022-08-14T17:50:58.602Z,98357.00
2022-08-14T17:52:40.775Z,98364.00
2022-08-14T17:54:15.278Z,98362.00
2022-08-14T17:56:02.064Z,98368.00
2022-08-14T17:57:41.169Z,98366.00
2022-08-14T17:59:17.649Z,98367.00
2022-08-14T18:00:57.466Z,98366.00
2022-08-14T18:02:35.319Z,98370.00
2022-08-14T18:04:28.218Z,98371.00
2022-08-14T18:06:07.019Z,98377.00
2022-08-14T18:07:50.524Z,98364.00
2022-08-14T18:09:56.231Z,98375.00
2022-08-14T18:11:45.895Z,98366.00
2022-08-14T18:13:50.245Z,98368.00
2022-08-14T18:15:17.465Z,98369.00
2022-08-14T18:16:55.770Z,98372.00
2022-08-14T18:18:31.949Z,98375.00
2022-08-14T18:20:15.909Z,98368.00
2022-08-14T18:22:23.798Z,98369.00
2022-08-14T18:24:03.034Z,98358.00
2022-08-14T18:25:47.104Z,98357.00
2022-08-14T18:27:29.705Z,98359.00
2022-08-14T18:29:14.659Z,98358.00
2022-08-14T18:30:57.996Z,98367.00
2022-08-14T18:32:54.903Z,98361.00
2022-08-14T18:34:50.721Z,98361.00
2022-08-14T18:36:47.185Z,98365.00
2022-08-14T18:38:55.128Z,98364.00
2022-08-14T18:40:37.990Z,98362.00
2022-08-14T18:42:45.620Z,98363.00
2022-08-14T18:45:12.723Z,98362.00
2022-08-14T18:47:23.673Z,98366.00
2022-08-14T18:49:15.568Z,98362.00
2022-08-14T18:50:52.930Z,98367.00
2022-08-14T18:52:45.007Z,98368.00
2022-08-14T18:54:38.234Z,98359.00
2022-08-14T18:56:12.534Z,98365.00
2022-08-14T18:58:27.816Z,98370.00
2022-08-14T19:00:51.270Z,98359.00
2022-08-14T19:02:44.454Z,98370.00
2022-08-14T19:04:38.365Z,98372.00
2022-08-14T19:06:16.822Z,98379.00
2022-08-14T19:08:24.886Z,98372.00
2022-08-14T19:10:02.228Z,98374.00
2022-08-14T19:11:50.338Z,98380.00
2022-08-14T19:13:47.872Z,98378.00
2022-08-14T19:15:31.359Z,98373.00
2022-08-14T19:17:06.043Z,98374.00
2022-08-14T19:18:52.037Z,98374.00
2022-08-14T19:20:27.290Z,98378.00
2022-08-14T19:22:01.875Z,98385.00
2022-08-14T19:24:27.675Z,98385.00
2022-08-14T19:26:33.909Z,98382.00
2022-08-14T19:28:30.843Z,98376.00
2022-08-14T19:30:25.566Z,98385.00
2022-08-14T19:32:06.106Z,98377.00
2022-08-14T19:33:53.775Z,98379.00
2022-08-14T19:35:55.679Z,98376.00
2022-08-14T19:37:52.582Z,98381.00
2022-08-14T19:39:46.518Z,98379.00
2022-08-14T19:41:29.554Z,98383.00
2022-08-14T19:43:06.571Z,98380.00
2022-08-14T19:44:44.299Z,98383.00
2022-08-14T19:46:39.032Z,98383.00
2022-08-14T19:48:24.260Z,98382.00
2022-08-14T19:50:24.464Z,98383.00
2022-08-14T19:51:52.931Z,98382.00
2022-08-14T19:53:29.363Z,98380.00
2022-08-14T19:55:02.743Z,98372.00
2022-08-14T19:56:41.444Z,98372.00
2022-08-14T19:58:27.993Z,98375.00
2022-08-14T20:00:28.192Z,98377.00
2022-08-14T20:02:02.871Z,98383.00
2022-08-14T20:04:00.627Z,98377.00
2022-08-14T20:05:45.607Z,98375.00
2022-08-14T20:07:59.403Z,98378.00
2022-08-14T20:11:12.351Z,98381.00
2022-08-14T20:12:04.689Z,98379.00
2022-08-14T20:13:39.354Z,98385.00
2022-08-14T20:15:15.474Z,98382.00
2022-08-14T20:17:04.696Z,98376.00
2022-08-14T20:18:50.163Z,98373.00
2022-08-14T20:20:31.431Z,98379.00
2022-08-14T20:22:37.255Z,98374.00
2022-08-14T20:24:31.122Z,98373.00
2022-08-14T20:26:30.830Z,98364.00
2022-08-14T20:28:30.040Z,98372.00